createdAt,value
2018-08-06T00:03:48.846Z,71.80
2018-08-06T00:06:16.905Z,70.80
2018-08-06T00:08:44.985Z,72.10
2018-08-06T00:11:13.049Z,71.60
2018-08-06T00:13:41.140Z,72.40
2018-08-06T00:16:09.185Z,72.30
2018-08-06T00:18:37.260Z,72.30
2018-08-06T00:21:05.310Z,72.30
2018-08-06T00:23:33.390Z,71.90
2018-08-06T00:26:01.457Z,72.60
2018-08-06T00:28:29.546Z,72.20
2018-08-06T00:30:57.626Z,72.60
2018-08-06T00:33:25.708Z,72.50
2018-08-06T00:35:54.068Z,72.70
2018-08-06T00:38:22.089Z,73.00
2018-08-06T00:40:50.150Z,73.20
2018-08-06T00:43:18.198Z,73.10
2018-08-06T00:45:46.281Z,73.00
2018-08-06T00:48:13.668Z,72.70
2018-08-06T00:53:08.890Z,72.70
2018-08-06T00:55:36.302Z,72.80
2018-08-06T00:58:03.713Z,73.80
2018-08-06T01:00:31.105Z,73.40
2018-08-06T01:02:58.497Z,73.00
2018-08-06T01:05:25.901Z,73.70
2018-08-06T01:07:53.286Z,73.50
2018-08-06T01:10:20.665Z,73.20
2018-08-06T01:12:48.071Z,73.70
2018-08-06T01:15:16.077Z,73.90
2018-08-06T01:17:43.473Z,73.70
2018-08-06T01:22:38.664Z,75.00
2018-08-06T01:27:33.970Z,74.30
2018-08-06T01:32:28.812Z,76.70
2018-08-06T01:34:56.234Z,74.90
2018-08-06T01:37:23.617Z,75.20
2018-08-06T01:39:51.181Z,75.40
2018-08-06T01:42:18.602Z,75.10
2018-08-06T01:44:46.020Z,75.40
2018-08-06T01:47:13.414Z,76.30
2018-08-06T01:49:40.810Z,75.90
2018-08-06T01:52:08.206Z,76.90
2018-08-06T01:54:35.589Z,76.10
2018-08-06T01:57:02.977Z,76.50
2018-08-06T01:59:30.377Z,76.70
2018-08-06T02:01:57.786Z,76.70
2018-08-06T02:04:25.165Z,76.30
2018-08-06T02:06:52.553Z,76.80
2018-08-06T02:09:19.941Z,76.80
2018-08-06T02:11:47.982Z,77.50
2018-08-06T02:14:16.026Z,78.00
2018-08-06T02:16:44.069Z,78.00
2018-08-06T02:19:12.125Z,78.70
2018-08-06T02:21:40.180Z,79.60
2018-08-06T02:24:08.233Z,78.90
2018-08-06T02:26:36.278Z,79.60
2018-08-06T02:29:04.522Z,80.50
2018-08-06T02:31:32.613Z,79.80
2018-08-06T02:34:00.718Z,80.80
2018-08-06T02:36:28.773Z,80.60
2018-08-06T02:38:56.806Z,81.20
2018-08-06T02:41:24.873Z,80.90
2018-08-06T02:43:53.134Z,81.70
2018-08-06T02:46:21.190Z,81.60
2018-08-06T02:48:49.233Z,81.90
2018-08-06T02:51:17.298Z,82.20
2018-08-06T02:53:51.094Z,82.50
2018-08-06T02:56:19.129Z,82.50
2018-08-06T02:58:47.174Z,83.10
2018-08-06T03:01:15.234Z,83.10
2018-08-06T03:03:43.358Z,83.00
2018-08-06T03:06:11.430Z,83.40
2018-08-06T03:08:39.485Z,83.70
2018-08-06T03:11:07.547Z,84.40
2018-08-06T03:13:35.607Z,84.10
2018-08-06T03:16:03.657Z,83.90
2018-08-06T03:18:31.744Z,84.10
2018-08-06T03:20:59.784Z,85.60
2018-08-06T03:23:27.878Z,85.00
2018-08-06T03:25:55.918Z,85.90
2018-08-06T03:28:23.965Z,85.60
2018-08-06T03:30:52.031Z,86.10
2018-08-06T03:33:20.077Z,86.80
2018-08-06T03:35:48.122Z,87.00
2018-08-06T03:38:16.178Z,87.30
2018-08-06T03:40:44.243Z,87.40
2018-08-06T03:43:12.310Z,87.80
2018-08-06T03:45:40.388Z,88.90
2018-08-06T03:48:08.462Z,88.80
2018-08-06T03:50:36.518Z,89.20
2018-08-06T03:55:31.734Z,90.10
2018-08-06T03:57:59.129Z,88.90
2018-08-06T04:00:26.517Z,89.60
2018-08-06T04:02:53.901Z,89.50
2018-08-06T04:05:21.939Z,89.30
2018-08-06T04:07:50.553Z,93.20
2018-08-06T04:10:18.598Z,93.20
2018-08-06T04:12:46.646Z,91.80
2018-08-06T04:22:39.254Z,91.20
2018-08-06T04:25:07.566Z,91.40
2018-08-06T04:27:35.880Z,91.30
2018-08-06T04:30:04.123Z,91.00
2018-08-06T04:32:31.496Z,91.40
2018-08-06T04:34:58.888Z,91.80
2018-08-06T04:37:26.393Z,91.90
2018-08-06T04:39:54.403Z,92.20
2018-08-06T04:42:22.455Z,92.50
2018-08-06T04:44:50.060Z,93.10
2018-08-06T04:49:45.966Z,92.60
2018-08-06T04:52:14.190Z,92.60
2018-08-06T04:54:42.233Z,93.00
2018-08-06T04:57:10.269Z,93.60
2018-08-06T04:59:38.366Z,92.60
2018-08-06T05:02:06.539Z,92.60
2018-08-06T05:04:33.934Z,92.90
2018-08-06T05:07:02.023Z,93.10
2018-08-06T05:09:38.893Z,92.90
2018-08-06T05:12:07.361Z,93.00
2018-08-06T05:14:34.998Z,93.70
2018-08-06T05:17:03.110Z,93.30
2018-08-06T05:19:30.523Z,93.70
2018-08-06T05:21:57.868Z,93.60
2018-08-06T05:24:25.947Z,93.90
2018-08-06T05:26:53.999Z,94.00
2018-08-06T05:29:22.038Z,94.10
2018-08-06T05:31:50.086Z,94.30
2018-08-06T05:36:45.946Z,93.80
2018-08-06T05:39:13.997Z,93.90
2018-08-06T05:41:41.409Z,95.30
2018-08-06T05:44:08.801Z,94.40
2018-08-06T05:46:36.186Z,94.30
2018-08-06T05:49:03.573Z,94.50
2018-08-06T05:51:30.979Z,94.00
2018-08-06T05:53:58.381Z,94.60
2018-08-06T05:56:26.423Z,93.70
2018-08-06T05:58:53.813Z,92.50
2018-08-06T06:01:21.875Z,93.90
2018-08-06T06:03:49.261Z,94.40
2018-08-06T06:06:16.648Z,94.10
2018-08-06T06:08:44.030Z,94.60
2018-08-06T06:11:11.443Z,94.30
2018-08-06T06:13:38.845Z,94.10
2018-08-06T06:18:34.066Z,93.70
2018-08-06T06:21:01.469Z,93.60
2018-08-06T06:23:28.857Z,94.50
2018-08-06T06:25:56.256Z,94.50
2018-08-06T06:30:51.482Z,93.30
2018-08-06T06:33:19.554Z,93.60
2018-08-06T06:35:47.618Z,93.50
2018-08-06T06:38:15.689Z,94.00
2018-08-06T06:40:43.834Z,93.90
2018-08-06T06:43:11.998Z,93.40
2018-08-06T06:45:39.437Z,93.40
2018-08-06T06:48:06.821Z,94.00
2018-08-06T06:50:34.230Z,93.90
2018-08-06T06:53:01.617Z,93.80
2018-08-06T06:55:29.662Z,94.00
2018-08-06T06:57:57.721Z,94.20
2018-08-06T07:00:25.119Z,93.70
2018-08-06T07:02:52.493Z,94.10
2018-08-06T07:05:19.900Z,94.20
2018-08-06T07:07:47.956Z,94.30
2018-08-06T07:10:16.055Z,94.40
2018-08-06T07:12:43.448Z,94.30
2018-08-06T07:15:14.265Z,94.50
2018-08-06T07:17:43.076Z,93.80
2018-08-06T07:22:37.852Z,93.90
2018-08-06T07:27:34.749Z,93.70
2018-08-06T07:30:02.141Z,93.30
2018-08-06T07:32:30.169Z,93.30
2018-08-06T07:34:57.556Z,93.00
2018-08-06T07:37:24.967Z,93.00
2018-08-06T07:39:52.694Z,94.00
2018-08-06T07:42:20.078Z,93.70
2018-08-06T07:44:47.465Z,93.70
2018-08-06T07:47:14.866Z,93.20
2018-08-06T07:49:42.305Z,93.10
2018-08-06T07:52:09.670Z,93.10
2018-08-06T07:54:37.080Z,93.60
2018-08-06T07:57:04.488Z,92.60
2018-08-06T08:01:59.032Z,93.10
2018-08-06T08:04:26.419Z,92.70
2018-08-06T08:09:20.996Z,92.60
2018-08-06T08:14:15.549Z,91.30
2018-08-06T08:16:42.933Z,92.00
2018-08-06T08:19:10.321Z,92.20
2018-08-06T08:21:37.705Z,92.10
2018-08-06T08:24:05.087Z,92.60
2018-08-06T08:26:32.469Z,91.40
2018-08-06T08:31:27.358Z,91.10
2018-08-06T08:33:54.786Z,92.20
2018-08-06T08:36:22.147Z,90.70
2018-08-06T08:38:49.536Z,90.60
2018-08-06T08:41:16.913Z,90.30
2018-08-06T08:46:11.469Z,91.00
2018-08-06T08:48:38.870Z,89.70
2018-08-06T08:51:06.322Z,90.20
2018-08-06T08:53:33.713Z,90.80
2018-08-06T08:58:28.287Z,90.00
2018-08-06T09:00:55.669Z,88.20
2018-08-06T09:03:23.062Z,89.70
2018-08-06T09:05:50.454Z,89.20
2018-08-06T09:08:17.849Z,88.90
2018-08-06T09:13:12.406Z,90.70
2018-08-06T09:15:39.857Z,88.40
2018-08-06T09:18:07.277Z,89.30
2018-08-06T09:20:34.665Z,86.40
2018-08-06T09:23:02.061Z,87.50
2018-08-06T09:25:29.452Z,87.80
2018-08-06T09:27:56.845Z,89.60
2018-08-06T09:30:25.302Z,89.30
2018-08-06T09:32:54.117Z,86.60
2018-08-06T09:37:48.876Z,86.50
2018-08-06T09:42:46.195Z,87.10
2018-08-06T09:45:15.385Z,88.10
2018-08-06T09:47:44.814Z,86.40
2018-08-06T09:52:40.484Z,83.70
2018-08-06T09:55:09.290Z,85.80
2018-08-06T09:57:36.694Z,84.40
2018-08-06T10:00:06.172Z,82.80
2018-08-06T10:02:34.217Z,84.10
2018-08-06T10:05:01.597Z,82.10
2018-08-06T10:07:29.005Z,83.50
2018-08-06T10:09:56.410Z,79.70
2018-08-06T10:12:24.462Z,80.80
2018-08-06T10:14:51.845Z,80.40
2018-08-06T10:17:19.252Z,79.40
2018-08-06T10:19:46.670Z,81.00
2018-08-06T10:24:41.256Z,79.20
2018-08-06T10:27:08.645Z,78.70
2018-08-06T10:29:36.029Z,78.90
2018-08-06T10:32:04.086Z,77.20
2018-08-06T10:36:59.314Z,79.80
2018-08-06T10:39:26.713Z,78.30
2018-08-06T10:44:21.265Z,76.50
2018-08-06T10:46:48.649Z,74.80
2018-08-06T10:49:16.044Z,77.80
2018-08-06T10:51:43.430Z,72.20
2018-08-06T10:54:10.813Z,74.10
2018-08-06T10:56:38.210Z,73.20
2018-08-06T10:59:05.601Z,72.30
2018-08-06T11:01:32.996Z,68.90
2018-08-06T11:04:00.401Z,71.10
2018-08-06T11:08:54.992Z,66.60
2018-08-06T11:13:49.573Z,61.10
2018-08-06T11:16:16.978Z,61.70
2018-08-06T11:18:44.361Z,62.40
2018-08-06T11:21:11.752Z,60.90
2018-08-06T11:23:39.146Z,59.30
2018-08-06T11:26:06.533Z,60.10
2018-08-06T11:28:34.000Z,58.40
2018-08-06T11:31:01.346Z,60.90
2018-08-06T11:33:28.732Z,60.80
2018-08-06T11:35:56.129Z,58.00
2018-08-06T11:40:50.699Z,54.70
2018-08-06T11:43:18.077Z,53.50
2018-08-06T11:45:45.469Z,55.40
2018-08-06T11:48:12.850Z,55.30
2018-08-06T11:50:40.258Z,55.50
2018-08-06T11:53:07.638Z,56.90
2018-08-06T11:55:35.038Z,53.10
2018-08-06T11:58:02.421Z,54.10
2018-08-06T12:00:29.844Z,53.10
2018-08-06T12:02:57.245Z,53.40
2018-08-06T12:05:24.639Z,53.20
2018-08-06T12:07:52.021Z,50.90
2018-08-06T12:10:19.709Z,48.50
2018-08-06T12:12:47.970Z,51.00
2018-08-06T12:15:15.655Z,49.30
2018-08-06T12:17:43.470Z,49.80
2018-08-06T12:20:12.041Z,52.30
2018-08-06T12:22:40.665Z,50.70
2018-08-06T12:25:09.057Z,50.50
2018-08-06T12:27:36.489Z,51.10
2018-08-06T12:30:05.018Z,50.20
2018-08-06T12:32:32.405Z,50.30
2018-08-06T12:37:27.634Z,49.20
2018-08-06T12:39:55.028Z,49.40
2018-08-06T12:42:22.405Z,50.20
2018-08-06T12:44:49.789Z,51.10
2018-08-06T12:47:17.189Z,48.60
2018-08-06T12:49:44.591Z,48.90
2018-08-06T12:52:11.981Z,48.40
2018-08-06T12:54:39.364Z,48.10
2018-08-06T12:57:06.790Z,47.10
2018-08-06T12:59:34.143Z,48.20
2018-08-06T13:02:01.535Z,50.50
2018-08-06T13:04:28.938Z,47.80
2018-08-06T13:06:56.335Z,49.50
2018-08-06T13:09:23.727Z,48.40
2018-08-06T13:11:51.913Z,47.60
2018-08-06T13:14:19.287Z,45.30
2018-08-06T13:16:46.669Z,45.60
2018-08-06T13:21:41.232Z,46.30
2018-08-06T13:24:08.633Z,45.30
2018-08-06T13:26:36.016Z,45.60
2018-08-06T13:29:03.422Z,48.30
2018-08-06T13:31:30.815Z,45.20
2018-08-06T13:36:25.375Z,45.30
2018-08-06T13:41:19.948Z,49.30
2018-08-06T13:43:47.325Z,46.80
2018-08-06T13:46:14.707Z,47.80
2018-08-06T13:48:42.089Z,43.20
2018-08-06T13:51:09.494Z,45.70
2018-08-06T13:53:36.873Z,46.40
2018-08-06T13:56:04.251Z,45.80
2018-08-06T13:58:31.638Z,44.10
2018-08-06T14:03:26.198Z,46.60
2018-08-06T14:05:53.595Z,46.30
2018-08-06T14:08:20.972Z,47.50
2018-08-06T14:10:48.357Z,44.00
2018-08-06T14:13:15.737Z,46.60
2018-08-06T14:15:43.141Z,44.50
2018-08-06T14:18:10.533Z,43.70
2018-08-06T14:20:37.931Z,42.30
2018-08-06T14:23:05.317Z,42.50
2018-08-06T14:25:32.705Z,43.40
2018-08-06T14:28:00.090Z,45.60
2018-08-06T14:30:27.481Z,45.30
2018-08-06T14:32:54.866Z,42.80
2018-08-06T14:35:22.254Z,45.70
2018-08-06T14:37:49.633Z,44.80
2018-08-06T14:40:18.260Z,45.30
2018-08-06T14:45:13.925Z,43.10
2018-08-06T14:47:42.009Z,42.70
2018-08-06T14:53:40.397Z,45.40
2018-08-06T14:56:07.784Z,47.00
2018-08-06T14:58:35.185Z,44.50
2018-08-06T15:01:02.613Z,43.20
2018-08-06T15:03:29.997Z,44.80
2018-08-06T15:05:57.436Z,44.20
2018-08-06T15:08:24.829Z,43.50
2018-08-06T15:13:19.401Z,43.10
2018-08-06T15:18:14.723Z,42.90
2018-08-06T15:20:42.036Z,43.20
2018-08-06T15:23:09.473Z,44.60
2018-08-06T15:28:04.057Z,45.70
2018-08-06T15:32:58.630Z,43.20
2018-08-06T15:37:53.201Z,41.90
2018-08-06T15:42:48.648Z,42.60
2018-08-06T15:45:16.726Z,43.90
2018-08-06T15:47:44.921Z,42.40
2018-08-06T15:52:39.906Z,44.30
2018-08-06T15:57:35.329Z,42.00
2018-08-06T16:00:02.751Z,41.30
2018-08-06T16:04:57.398Z,44.90
2018-08-06T16:07:25.466Z,46.50
2018-08-06T16:12:20.021Z,44.50
2018-08-06T16:14:47.413Z,42.10
2018-08-06T16:17:14.801Z,45.30
2018-08-06T16:19:42.854Z,44.80
2018-08-06T16:22:10.893Z,44.30
2018-08-06T16:24:38.958Z,43.90
2018-08-06T16:27:06.336Z,45.80
2018-08-06T16:32:01.767Z,46.80
2018-08-06T16:34:29.833Z,47.90
2018-08-06T16:36:57.874Z,48.50
2018-08-06T16:39:25.271Z,45.90
2018-08-06T16:41:52.653Z,46.30
2018-08-06T16:44:20.058Z,48.40
2018-08-06T16:46:48.169Z,49.40
2018-08-06T16:49:15.501Z,47.70
2018-08-06T16:51:42.921Z,48.50
2018-08-06T16:54:10.314Z,48.80
2018-08-06T16:56:37.701Z,49.50
2018-08-06T16:59:05.268Z,51.50
2018-08-06T17:01:32.662Z,49.40
2018-08-06T17:04:00.049Z,51.40
2018-08-06T17:06:27.474Z,50.10
2018-08-06T17:08:54.837Z,50.40
2018-08-06T17:11:22.272Z,50.00
2018-08-06T17:13:49.652Z,50.10
2018-08-06T17:16:17.046Z,49.80
2018-08-06T17:18:44.436Z,48.80
2018-08-06T17:21:11.821Z,49.20
2018-08-06T17:23:39.920Z,49.10
2018-08-06T17:26:07.961Z,49.00
2018-08-06T17:28:36.034Z,48.60
2018-08-06T17:31:04.081Z,48.90
2018-08-06T17:33:32.131Z,48.60
2018-08-06T17:38:28.025Z,50.10
2018-08-06T17:40:55.434Z,50.10
2018-08-06T17:45:50.088Z,50.10
2018-08-06T17:48:17.465Z,50.40
2018-08-06T17:50:44.858Z,50.20
2018-08-06T17:53:12.237Z,50.80
2018-08-06T17:55:40.340Z,51.20
2018-08-06T18:00:35.529Z,52.20
2018-08-06T18:03:02.984Z,51.10
2018-08-06T18:05:30.963Z,53.00
2018-08-06T18:07:59.014Z,50.70
2018-08-06T18:10:27.071Z,52.10
2018-08-06T18:12:55.127Z,52.10
2018-08-06T18:15:23.175Z,52.50
2018-08-06T18:17:51.218Z,53.20
2018-08-06T18:20:19.209Z,52.90
2018-08-06T18:22:46.755Z,53.70
2018-08-06T18:25:16.434Z,54.60
2018-08-06T18:27:45.493Z,56.00
2018-08-06T18:30:16.090Z,57.40
2018-08-06T18:32:43.545Z,58.10
2018-08-06T18:35:13.478Z,58.50
2018-08-06T18:42:38.281Z,61.20
2018-08-06T18:45:15.191Z,61.90
2018-08-06T18:47:44.032Z,59.00
2018-08-06T18:50:12.998Z,58.90
2018-08-06T18:52:41.703Z,64.10
2018-08-06T18:55:11.206Z,62.30
2018-08-06T18:57:39.492Z,64.00
2018-08-06T19:00:09.948Z,65.60
2018-08-06T19:02:38.070Z,67.40
2018-08-06T19:05:06.546Z,62.70
2018-08-06T19:07:34.003Z,61.10
2018-08-06T19:10:01.368Z,66.40
2018-08-06T19:12:34.282Z,68.60
2018-08-06T19:15:02.343Z,69.80
2018-08-06T19:17:30.425Z,63.00
2018-08-06T19:19:58.048Z,66.40
2018-08-06T19:22:26.115Z,61.80
2018-08-06T19:24:59.361Z,67.50
2018-08-06T19:27:26.772Z,62.90
2018-08-06T19:29:54.169Z,66.60
2018-08-06T19:32:21.613Z,62.30
2018-08-06T19:34:49.042Z,61.50
2018-08-06T19:37:21.849Z,60.80
2018-08-06T19:39:49.226Z,60.70
2018-08-06T19:42:17.903Z,60.00
2018-08-06T19:44:45.281Z,63.00
2018-08-06T19:47:12.691Z,60.20
2018-08-06T19:49:46.262Z,59.60
2018-08-06T19:52:14.342Z,63.70
2018-08-06T19:54:42.411Z,60.90
2018-08-06T19:57:09.785Z,61.50
2018-08-06T19:59:37.858Z,62.30
2018-08-06T20:02:05.333Z,60.30
2018-08-06T20:04:32.705Z,61.10
2018-08-06T20:07:00.100Z,60.40
2018-08-06T20:09:28.185Z,60.80
2018-08-06T20:11:56.270Z,60.90
2018-08-06T20:14:24.310Z,60.00
2018-08-06T20:16:52.352Z,59.80
2018-08-06T20:19:20.422Z,60.50
2018-08-06T20:21:47.813Z,59.50
2018-08-06T20:24:15.284Z,59.00
2018-08-06T20:26:42.644Z,60.40
2018-08-06T20:29:10.105Z,60.60
2018-08-06T20:31:37.510Z,59.90
2018-08-06T20:34:05.042Z,61.60
2018-08-06T20:36:32.417Z,60.60
2018-08-06T20:38:59.823Z,62.30
2018-08-06T20:41:27.232Z,62.10
2018-08-06T20:43:54.629Z,63.20
2018-08-06T20:46:22.059Z,64.50
2018-08-06T20:48:49.461Z,65.10
2018-08-06T20:51:16.832Z,65.50
2018-08-06T20:53:44.245Z,66.20
2018-08-06T20:56:11.657Z,67.00
2018-08-06T20:58:39.060Z,68.20
2018-08-06T21:01:06.525Z,68.60
2018-08-06T21:03:33.922Z,69.40
2018-08-06T21:06:01.358Z,69.60
2018-08-06T21:08:28.769Z,69.80
2018-08-06T21:10:56.157Z,70.90
2018-08-06T21:13:23.553Z,71.10
2018-08-06T21:15:51.003Z,71.40
2018-08-06T21:18:18.442Z,70.90
2018-08-06T21:20:45.834Z,71.70
2018-08-06T21:23:13.226Z,72.00
2018-08-06T21:25:40.645Z,72.10
2018-08-06T21:28:08.044Z,73.50
2018-08-06T21:33:02.661Z,72.70
2018-08-06T21:35:30.090Z,73.10
2018-08-06T21:37:57.556Z,73.60
2018-08-06T21:40:25.604Z,74.50
2018-08-06T21:42:53.332Z,75.00
2018-08-06T21:45:20.883Z,75.40
2018-08-06T21:47:48.518Z,75.80
2018-08-06T21:52:43.513Z,77.80
2018-08-06T21:57:38.402Z,78.20
2018-08-06T22:00:23.425Z,78.70
2018-08-06T22:02:50.829Z,79.10
2018-08-06T22:05:18.305Z,81.10
2018-08-06T22:07:45.713Z,79.90
2018-08-06T22:10:13.122Z,80.20
2018-08-06T22:12:40.521Z,81.10
2018-08-06T22:15:07.933Z,82.00
2018-08-06T22:17:35.322Z,82.30
2018-08-06T22:22:29.940Z,82.80
2018-08-06T22:24:57.785Z,82.70
2018-08-06T22:27:25.198Z,83.40
2018-08-06T22:29:52.577Z,84.10
2018-08-06T22:32:19.977Z,84.60
2018-08-06T22:37:14.569Z,85.50
2018-08-06T22:42:09.158Z,85.30
2018-08-06T22:44:36.589Z,85.30
2018-08-06T22:47:04.415Z,85.60
2018-08-06T22:49:32.461Z,85.80
2018-08-06T22:54:27.093Z,86.20
2018-08-06T22:56:54.522Z,85.60
2018-08-06T23:01:49.086Z,87.70
2018-08-06T23:06:43.779Z,88.00
2018-08-06T23:09:12.278Z,88.70
2018-08-06T23:11:40.384Z,89.90
2018-08-06T23:16:35.079Z,90.50
2018-08-06T23:19:02.629Z,90.70
2018-08-06T23:21:30.030Z,90.80
2018-08-06T23:23:57.490Z,91.00
2018-08-06T23:26:24.889Z,91.50
2018-08-06T23:28:52.295Z,92.10
2018-08-06T23:31:20.397Z,92.10
2018-08-06T23:33:47.793Z,92.50
2018-08-06T23:36:15.173Z,92.90
2018-08-06T23:38:42.589Z,93.20
2018-08-06T23:41:09.997Z,93.60
2018-08-06T23:43:37.461Z,93.70
2018-08-06T23:48:32.787Z,94.50
2018-08-06T23:51:00.870Z,94.80
2018-08-06T23:53:28.934Z,95.40
2018-08-06T23:58:24.906Z,96.10
